Time;durP1;ratioP1;P1;durP2;ratioP2;P2;SDS_P1;SDS_P2;PMS_P1;PMS_P2;Temp;Humidity;BMP_temperature;BMP_pressure;BME280_temperature;BME280_humidity;BME280_pressure;Samples;Min_cycle;Max_cycle;Signal;HPM_P1;HPM_P2
2021/03/17 00:02:00;;;;;;;;;;;;;;;30.56;22.49;99095.63;5082520;28;1014;-35
2021/03/17 00:04:26;;;;;;;;;;;;;;;30.34;22.57;99095.50;5097439;28;1143;-34
2021/03/17 00:06:51;;;;;;;;;;;;;;;30.09;22.99;99094.78;5097633;28;781;-42
2021/03/17 00:09:17;;;;;;;;;;;;;;;30.34;23.36;99084.66;5097740;28;800;-36
2021/03/17 00:11:42;;;;;;;;;;;;;;;30.41;23.47;99082.63;5091093;28;1176;-33
2021/03/17 00:14:07;;;;;;;;;;;;;;;30.53;23.24;99088.78;5077530;28;816;-35
2021/03/17 00:16:33;;;;;;;;;;;;;;;30.65;23.31;99090.56;5077168;28;947;-44
2021/03/17 00:18:58;;;;;;;;;;;;;;;30.71;23.00;99089.59;5077425;28;828;-33
2021/03/17 00:21:23;;;;;;;;;;;;;;;30.65;22.75;99087.84;5058592;28;1902;-48
2021/03/17 00:23:48;;;;;;;;;;;;;;;30.37;23.08;99084.16;5077207;28;815;-32
2021/03/17 00:26:14;;;;;;;;;;;;;;;30.38;23.81;99086.63;5077120;28;870;-42
2021/03/17 00:28:39;;;;;;;;;;;;;;;30.56;23.82;99084.75;5076754;28;772;-33
2021/03/17 00:31:04;;;;;;;;;;;;;;;30.64;23.93;99080.78;5076932;28;1249;-32
2021/03/17 00:33:29;;;;;;;;;;;;;;;30.71;23.81;99083.34;5094840;28;978;-32
2021/03/17 00:35:55;;;;;;;;;;;;;;;30.85;23.58;99075.69;5096708;28;810;-43
2021/03/17 00:38:20;;;;;;;;;;;;;;;30.83;23.19;99072.44;5097234;28;776;-39
2021/03/17 00:40:45;;;;;;;;;;;;;;;30.59;23.75;99067.16;5096977;28;1937;-31
2021/03/17 00:43:11;;;;;;;;;;;;;;;30.35;23.66;99064.59;5097076;28;736;-34
2021/03/17 00:45:36;;;;;;;;;;;;;;;30.58;24.15;99058.16;5097387;28;779;-40
2021/03/17 00:48:01;;;;;;;;;;;;;;;30.73;24.03;99057.59;5082812;28;954;-32
2021/03/17 00:50:27;;;;;;;;;;;;;;;30.76;23.91;99056.28;5076456;28;747;-40
2021/03/17 00:52:52;;;;;;;;;;;;;;;30.85;23.83;99059.41;5076690;28;764;-34
2021/03/17 00:55:17;;;;;;;;;;;;;;;30.92;23.88;99055.47;5076846;28;779;-32
2021/03/17 00:57:43;;;;;;;;;;;;;;;30.80;23.49;99054.72;5076642;28;831;-30
2021/03/17 01:00:09;;;;;;;;;;;;;;;30.50;23.61;99059.41;5076576;28;1980;-30
2021/03/17 01:02:34;;;;;;;;;;;;;;;30.66;24.44;99060.47;5076510;28;1026;-33
2021/03/17 01:04:59;;;;;;;;;;;;;;;30.89;24.20;99052.41;5076278;28;847;-35
2021/03/17 01:07:25;;;;;;;;;;;;;;;30.75;23.75;99050.03;5076613;28;787;-31
2021/03/17 01:09:50;;;;;;;;;;;;;;;30.43;24.27;99047.91;5076394;28;885;-32
2021/03/17 01:12:15;;;;;;;;;;;;;;;30.64;23.89;99043.63;5086889;28;1116;-32
2021/03/17 01:14:41;;;;;;;;;;;;;;;30.62;23.95;99040.34;5095887;28;740;-31
2021/03/17 01:17:06;;;;;;;;;;;;;;;30.52;24.36;99043.72;5090183;28;1032;-36
2021/03/17 01:19:32;;;;;;;;;;;;;;;30.57;24.83;99036.72;5076258;28;1976;-31
2021/03/17 01:21:57;;;;;;;;;;;;;;;30.67;24.44;99045.03;5076604;28;772;-41
2021/03/17 01:24:22;;;;;;;;;;;;;;;30.73;23.75;99033.16;5076274;28;898;-42
2021/03/17 01:26:48;;;;;;;;;;;;;;;30.52;23.99;99035.59;5076059;28;768;-37
2021/03/17 01:29:13;;;;;;;;;;;;;;;30.24;24.63;99037.31;5076130;28;875;-32
2021/03/17 01:31:39;;;;;;;;;;;;;;;30.51;24.23;99038.53;5078075;28;1158;-34
2021/03/17 01:34:04;;;;;;;;;;;;;;;30.60;24.28;99031.63;5096476;28;804;-31
2021/03/17 01:36:29;;;;;;;;;;;;;;;30.64;24.09;99031.94;5096491;28;803;-47
2021/03/17 01:38:55;;;;;;;;;;;;;;;30.72;24.02;99027.97;5096182;28;992;-32
2021/03/17 01:41:20;;;;;;;;;;;;;;;30.78;23.83;99030.53;5095617;28;1909;-46
2021/03/17 01:43:45;;;;;;;;;;;;;;;30.47;23.69;99026.53;5096427;28;807;-30
2021/03/17 01:46:10;;;;;;;;;;;;;;;30.19;24.03;99023.63;5096198;28;839;-34
2021/03/17 01:48:36;;;;;;;;;;;;;;;30.12;23.95;99028.41;5076920;28;955;-43
2021/03/17 01:51:01;;;;;;;;;;;;;;;30.24;24.19;99025.63;5076051;28;775;-31
2021/03/17 01:53:36;;;;;;;;;;;;;;;30.35;23.90;99030.16;5076015;28;760;-45
2021/03/17 01:56:02;;;;;;;;;;;;;;;30.53;24.12;99025.56;5075757;28;872;-34
2021/03/17 01:58:28;;;;;;;;;;;;;;;30.66;23.86;99027.09;5076342;28;835;-33
2021/03/17 02:00:53;;;;;;;;;;;;;;;30.65;23.06;99031.69;5057907;28;1961;-34
2021/03/17 02:03:18;;;;;;;;;;;;;;;30.31;23.51;99039.88;5091736;28;955;-35
2021/03/17 02:05:44;;;;;;;;;;;;;;;30.49;24.04;99033.38;5096177;28;752;-35
2021/03/17 02:08:11;;;;;;;;;;;;;;;30.73;24.01;99030.44;5096107;28;744;-32
2021/03/17 02:10:37;;;;;;;;;;;;;;;30.65;23.29;99025.44;5077012;28;847;-31
2021/03/17 02:13:21;;;;;;;;;;;;;;;30.52;23.83;99024.72;5078723;28;1195;-41
2021/03/17 02:15:46;;;;;;;;;;;;;;;30.45;24.03;99029.50;5075940;28;847;-31
2021/03/17 02:18:23;;;;;;;;;;;;;;;30.62;23.63;99031.38;5075140;28;971;-38
2021/03/17 02:20:54;;;;;;;;;;;;;;;30.55;23.79;99026.94;5057609;28;1906;-32
2021/03/17 02:23:23;;;;;;;;;;;;;;;30.54;24.64;99033.44;5075800;28;861;-41
2021/03/17 02:25:54;;;;;;;;;;;;;;;30.66;24.59;99022.47;5077231;28;748;-30
2021/03/17 02:28:33;;;;;;;;;;;;;;;30.68;23.84;99028.47;5079237;28;844;-33
2021/03/17 02:31:17;;;;;;;;;;;;;;;30.35;24.07;99024.72;5061352;28;1224;-34
2021/03/17 02:33:53;;;;;;;;;;;;;;;30.47;24.86;99029.25;5098389;28;988;-34
2021/03/17 02:36:21;;;;;;;;;;;;;;;30.79;24.45;99025.91;5099472;28;797;-35
2021/03/17 02:38:48;;;;;;;;;;;;;;;30.75;23.86;99022.88;5099708;28;776;-33
2021/03/17 02:41:15;;;;;;;;;;;;;;;30.62;24.15;99023.22;5098840;28;1906;-34
2021/03/17 02:43:40;;;;;;;;;;;;;;;30.63;24.39;99022.19;5081123;28;570;-35
2021/03/17 02:46:07;;;;;;;;;;;;;;;30.68;24.20;99022.22;5081318;28;951;-35
2021/03/17 02:48:36;;;;;;;;;;;;;;;30.57;24.38;99023.97;5079976;28;958;-39
2021/03/17 02:51:05;;;;;;;;;;;;;;;30.52;24.56;99018.47;5078667;28;871;-33
2021/03/17 02:53:30;;;;;;;;;;;;;;;30.61;24.77;99022.44;5060896;28;1270;-33
2021/03/17 02:56:03;;;;;;;;;;;;;;;30.75;24.53;99031.03;5060459;28;818;-47
2021/03/17 02:58:29;;;;;;;;;;;;;;;30.77;24.12;99030.78;5061086;28;760;-34
2021/03/17 03:00:54;;;;;;;;;;;;;;;30.67;23.81;99028.72;5078381;28;1953;-43
2021/03/17 03:03:20;;;;;;;;;;;;;;;30.49;24.46;99030.66;5076900;28;956;-32
2021/03/17 03:05:45;;;;;;;;;;;;;;;30.75;24.31;99028.31;5099075;28;771;-44
2021/03/17 03:08:10;;;;;;;;;;;;;;;30.84;23.29;99034.16;5098563;28;969;-32
2021/03/17 03:10:36;;;;;;;;;;;;;;;30.72;23.72;99027.97;5098281;28;803;-41
2021/03/17 03:13:01;;;;;;;;;;;;;;;30.52;24.06;99034.75;5081718;28;1266;-35
2021/03/17 03:15:27;;;;;;;;;;;;;;;30.24;24.36;99028.34;5078791;28;981;-35
2021/03/17 03:17:53;;;;;;;;;;;;;;;30.47;24.82;99027.38;5090767;28;955;-34
2021/03/17 03:20:20;;;;;;;;;;;;;;;30.74;24.58;99032.09;5098686;28;1961;-36
2021/03/17 03:22:45;;;;;;;;;;;;;;;30.87;24.33;99030.13;5098448;28;951;-43
2021/03/17 03:25:11;;;;;;;;;;;;;;;30.87;24.31;99028.25;5097956;28;823;-31
2021/03/17 03:27:36;;;;;;;;;;;;;;;30.94;24.23;99038.09;5098581;28;1427;-37
2021/03/17 03:30:08;;;;;;;;;;;;;;;31.01;24.14;99036.03;5098304;28;1113;-45
2021/03/17 03:32:33;;;;;;;;;;;;;;;30.99;23.52;99033.56;5087663;28;994;-34
2021/03/17 03:34:59;;;;;;;;;;;;;;;30.70;23.96;99025.50;5078143;28;808;-36
2021/03/17 03:37:24;;;;;;;;;;;;;;;30.54;24.62;99038.88;5077115;28;754;-32
2021/03/17 03:39:49;;;;;;;;;;;;;;;30.78;24.19;99025.09;5077570;28;1910;-32
2021/03/17 03:42:14;;;;;;;;;;;;;;;30.80;23.67;99027.59;5078029;28;851;-32
2021/03/17 03:44:40;;;;;;;;;;;;;;;30.59;24.11;99027.28;5077866;28;814;-40
2021/03/17 03:47:05;;;;;;;;;;;;;;;30.68;24.32;99024.94;5083320;28;959;-33
2021/03/17 03:49:30;;;;;;;;;;;;;;;30.80;24.07;99027.59;5080191;28;759;-33
2021/03/17 03:51:59;;;;;;;;;;;;;;;30.69;24.19;99026.59;5097960;28;843;-45
2021/03/17 03:54:28;;;;;;;;;;;;;;;30.66;24.56;99024.38;5079572;28;765;-38
2021/03/17 03:56:56;;;;;;;;;;;;;;;30.79;24.57;99031.34;5097720;28;898;-46
2021/03/17 03:59:23;;;;;;;;;;;;;;;30.81;24.15;99031.13;5097822;28;807;-31
2021/03/17 04:01:48;;;;;;;;;;;;;;;30.51;24.37;99027.69;5075372;28;1101;-34
2021/03/17 04:04:14;;;;;;;;;;;;;;;30.16;23.88;99016.81;5059515;28;531;-33
2021/03/17 04:06:40;;;;;;;;;;;;;;;30.42;22.87;99025.41;5077382;28;916;-41
2021/03/17 04:09:05;;;;;;;;;;;;;;;30.78;22.52;99019.66;5059074;28;859;-41
2021/03/17 04:11:30;;;;;;;;;;;;;;;30.90;22.61;99019.59;5081400;28;1191;-39
2021/03/17 04:13:57;;;;;;;;;;;;;;;30.90;22.72;99025.00;5097826;28;830;-41
2021/03/17 04:16:22;;;;;;;;;;;;;;;30.82;22.38;99016.47;5078193;28;966;-32
2021/03/17 04:18:48;;;;;;;;;;;;;;;28.26;19.04;99013.47;5059444;28;1409;-33
2021/03/17 04:21:16;;;;;;;;;;;;;;;25.51;20.67;99011.19;5076876;28;1962;-30
2021/03/17 04:23:42;;;;;;;;;;;;;;;25.21;20.63;99006.34;5058713;28;984;-41
2021/03/17 04:26:07;;;;;;;;;;;;;;;25.10;20.97;99013.22;5077181;28;825;-33
2021/03/17 04:28:34;;;;;;;;;;;;;;;24.65;21.11;99014.75;5059472;28;752;-31
2021/03/17 04:31:00;;;;;;;;;;;;;;;24.78;20.99;99010.38;5076215;28;1132;-33
2021/03/17 04:33:25;;;;;;;;;;;;;;;23.75;21.66;99014.03;5094317;28;935;-34
2021/03/17 04:35:53;;;;;;;;;;;;;;;23.43;22.43;99016.41;5097040;28;807;-40
2021/03/17 04:38:18;;;;;;;;;;;;;;;21.95;23.15;99015.13;5096941;28;735;-31
2021/03/17 04:40:44;;;;;;;;;;;;;;;21.73;24.44;99014.25;5096952;28;1918;-38
2021/03/17 04:43:12;;;;;;;;;;;;;;;22.44;23.57;99015.34;5079038;28;1027;-33
2021/03/17 04:45:37;;;;;;;;;;;;;;;22.67;23.24;99024.22;5078526;28;886;-30
2021/03/17 04:48:03;;;;;;;;;;;;;;;22.72;23.06;99021.78;5082653;28;1021;-30
2021/03/17 04:50:28;;;;;;;;;;;;;;;22.81;22.83;99009.03;5077042;28;705;-28
2021/03/17 04:52:54;;;;;;;;;;;;;;;23.41;23.25;99008.53;5089565;28;1461;-37
2021/03/17 04:55:19;;;;;;;;;;;;;;;25.24;21.65;99016.69;5077749;28;991;-33
2021/03/17 04:57:45;;;;;;;;;;;;;;;24.67;22.66;99019.91;5077978;28;1504;-33
2021/03/17 05:00:11;;;;;;;;;;;;;;;24.63;22.53;99013.28;5078343;28;1910;-38
2021/03/17 05:02:37;;;;;;;;;;;;;;;24.61;23.35;99013.50;5096046;28;816;-51
2021/03/17 05:05:02;;;;;;;;;;;;;;;24.53;23.40;99009.16;5096798;28;760;-38
2021/03/17 05:07:27;;;;;;;;;;;;;;;24.67;22.87;99018.03;5096702;28;727;-38
2021/03/17 05:09:53;;;;;;;;;;;;;;;24.70;22.50;99022.19;5096360;28;790;-36
2021/03/17 05:12:18;;;;;;;;;;;;;;;24.68;22.38;99021.56;5067209;28;1191;-36
2021/03/17 05:14:44;;;;;;;;;;;;;;;24.66;22.30;99016.38;5058201;28;753;-36
2021/03/17 05:17:09;;;;;;;;;;;;;;;24.70;22.25;99019.47;5081495;28;963;-36
2021/03/17 05:19:34;;;;;;;;;;;;;;;24.66;22.16;99019.06;5078820;28;1959;-35
2021/03/17 05:22:00;;;;;;;;;;;;;;;24.56;22.08;99018.66;5096436;28;871;-38
2021/03/17 05:24:25;;;;;;;;;;;;;;;24.64;22.09;99020.31;5078144;28;799;-38
2021/03/17 05:26:51;;;;;;;;;;;;;;;24.54;22.13;99029.63;5096222;28;886;-37
2021/03/17 05:29:18;;;;;;;;;;;;;;;24.52;22.60;99031.72;5078061;28;1448;-35
2021/03/17 05:31:43;;;;;;;;;;;;;;;24.44;22.82;99032.72;5092192;28;1314;-51
2021/03/17 05:34:08;;;;;;;;;;;;;;;24.52;22.57;99023.66;5076140;28;787;-34
2021/03/17 05:36:34;;;;;;;;;;;;;;;24.52;22.46;99034.41;5076176;28;826;-37
2021/03/17 05:39:00;;;;;;;;;;;;;;;24.53;22.64;99027.97;5075868;28;755;-32
2021/03/17 05:41:25;;;;;;;;;;;;;;;22.74;23.24;99033.94;5076261;28;1905;-34
2021/03/17 05:43:50;;;;;;;;;;;;;;;18.94;28.91;99022.09;5074866;28;771;-42
2021/03/17 05:46:15;;;;;;;;;;;;;;;15.82;34.48;99024.75;5076011;28;743;-35
2021/03/17 05:48:41;;;;;;;;;;;;;;;20.87;26.90;99024.44;5074306;28;958;-30
2021/03/17 05:51:06;;;;;;;;;;;;;;;22.49;24.61;99034.34;5075568;28;747;-48
2021/03/17 05:53:32;;;;;;;;;;;;;;;22.78;24.18;99026.34;5074314;28;784;-33
2021/03/17 05:56:00;;;;;;;;;;;;;;;23.62;23.72;99030.94;5074818;28;889;-38
2021/03/17 05:58:26;;;;;;;;;;;;;;;23.79;24.35;99025.19;5076246;28;1065;-38
2021/03/17 06:00:51;;;;;;;;;;;;;;;24.01;24.18;99028.53;5077739;28;1918;-37
2021/03/17 06:03:17;;;;;;;;;;;;;;;24.13;24.37;99036.81;5080292;28;1057;-46
2021/03/17 06:05:43;;;;;;;;;;;;;;;24.16;24.16;99035.56;5076836;28;1182;-46
2021/03/17 06:08:17;;;;;;;;;;;;;;;24.04;24.12;99038.06;5064250;28;1241;-32
2021/03/17 06:10:43;;;;;;;;;;;;;;;24.05;24.17;99037.84;5079889;28;850;-37
2021/03/17 06:13:08;;;;;;;;;;;;;;;24.15;23.85;99041.97;5097789;28;1217;-43
2021/03/17 06:15:34;;;;;;;;;;;;;;;24.21;23.54;99041.19;5120325;28;962;-36
2021/03/17 06:18:01;;;;;;;;;;;;;;;23.99;23.46;99044.00;5075140;28;943;-34
2021/03/17 06:20:27;;;;;;;;;;;;;;;23.89;23.43;99048.97;5079874;28;1903;-34
2021/03/17 06:22:52;;;;;;;;;;;;;;;23.97;23.27;99038.84;5079384;28;819;-32
2021/03/17 06:25:17;;;;;;;;;;;;;;;23.82;23.51;99046.25;5079876;28;806;-43
2021/03/17 06:27:42;;;;;;;;;;;;;;;23.83;23.60;99045.22;5062133;28;839;-34
2021/03/17 06:30:08;;;;;;;;;;;;;;;23.76;23.58;99047.06;5078821;28;1158;-30
2021/03/17 06:32:34;;;;;;;;;;;;;;;23.81;23.87;99045.44;5079650;28;962;-36
2021/03/17 06:35:00;;;;;;;;;;;;;;;23.88;23.51;99047.28;5079786;28;969;-30
2021/03/17 06:37:35;;;;;;;;;;;;;;;23.96;23.55;99053.31;5079421;28;808;-31
2021/03/17 06:40:00;;;;;;;;;;;;;;;24.13;23.47;99052.09;5079455;28;1903;-30
2021/03/17 06:42:37;;;;;;;;;;;;;;;24.35;22.99;99047.41;5079474;28;837;-32
2021/03/17 06:45:02;;;;;;;;;;;;;;;24.32;22.85;99055.88;5079031;28;855;-32
2021/03/17 06:47:28;;;;;;;;;;;;;;;24.43;22.72;99057.13;5079724;28;971;-34
2021/03/17 06:49:53;;;;;;;;;;;;;;;24.50;22.67;99055.28;5061493;28;1071;-33
2021/03/17 06:52:37;;;;;;;;;;;;;;;24.28;22.90;99055.47;5084948;28;817;-29
2021/03/17 06:55:16;;;;;;;;;;;;;;;24.30;23.54;99058.78;5098385;28;871;-31
2021/03/17 06:57:47;;;;;;;;;;;;;;;24.26;24.12;99062.06;5099309;28;820;-31
2021/03/17 07:00:15;;;;;;;;;;;;;;;24.23;24.44;99059.78;5099047;28;1902;-32
2021/03/17 07:02:41;;;;;;;;;;;;;;;24.53;24.03;99054.03;5098316;28;982;-33
2021/03/17 07:05:06;;;;;;;;;;;;;;;24.87;23.75;99056.69;5099298;28;739;-33
2021/03/17 07:07:44;;;;;;;;;;;;;;;24.65;23.88;99055.06;5098810;28;720;-36
2021/03/17 07:10:10;;;;;;;;;;;;;;;24.72;23.62;99056.91;5099130;28;768;-35
2021/03/17 07:12:35;;;;;;;;;;;;;;;24.79;23.67;99058.56;5084293;28;1115;-34
2021/03/17 07:15:07;;;;;;;;;;;;;;;24.82;23.73;99058.13;5078307;28;780;-36
2021/03/17 07:17:33;;;;;;;;;;;;;;;24.89;23.51;99051.94;5096328;28;848;-35
2021/03/17 07:19:58;;;;;;;;;;;;;;;24.97;23.43;99064.38;5099156;28;1971;-38
2021/03/17 07:22:23;;;;;;;;;;;;;;;25.11;23.22;99054.41;5088837;28;854;-35
2021/03/17 07:24:55;;;;;;;;;;;;;;;25.09;23.28;99053.78;5078423;28;868;-36
2021/03/17 07:27:24;;;;;;;;;;;;;;;25.03;23.41;99055.44;5078373;28;823;-35
2021/03/17 07:29:58;;;;;;;;;;;;;;;25.06;23.52;99055.88;5078241;28;846;-34
2021/03/17 07:32:27;;;;;;;;;;;;;;;25.18;23.25;99052.50;5096505;28;950;-35
2021/03/17 07:34:52;;;;;;;;;;;;;;;25.24;23.30;99057.03;5098877;28;764;-35
2021/03/17 07:37:18;;;;;;;;;;;;;;;25.23;23.24;99059.94;5098208;28;744;-45
2021/03/17 07:39:43;;;;;;;;;;;;;;;25.28;23.11;99052.06;5080137;28;1905;-46
2021/03/17 07:42:10;;;;;;;;;;;;;;;25.26;23.23;99052.28;5098318;28;762;-31
2021/03/17 07:44:36;;;;;;;;;;;;;;;25.26;23.21;99054.13;5098321;28;744;-32
2021/03/17 07:47:02;;;;;;;;;;;;;;;25.23;23.15;99052.72;5097320;28;990;-35
2021/03/17 07:49:27;;;;;;;;;;;;;;;25.13;23.32;99049.63;5097861;28;796;-32
2021/03/17 07:51:56;;;;;;;;;;;;;;;25.25;23.27;99053.34;5097917;28;747;-38
2021/03/17 07:54:25;;;;;;;;;;;;;;;25.17;23.41;99056.25;5098242;28;826;-36
2021/03/17 07:56:50;;;;;;;;;;;;;;;25.22;23.20;99058.31;5098084;28;847;-32
2021/03/17 07:59:16;;;;;;;;;;;;;;;25.25;23.12;99053.34;5079722;28;807;-34
2021/03/17 08:01:41;;;;;;;;;;;;;;;25.17;23.17;99053.56;5097140;28;1910;-36
2021/03/17 08:04:06;;;;;;;;;;;;;;;25.26;23.08;99054.97;5079693;28;823;-36
2021/03/17 08:06:31;;;;;;;;;;;;;;;25.18;23.32;99064.13;5097646;28;771;-36
2021/03/17 08:08:57;;;;;;;;;;;;;;;25.22;23.15;99048.38;5098103;28;768;-36
2021/03/17 08:11:23;;;;;;;;;;;;;;;25.30;23.19;99055.38;5094166;28;1182;-32
2021/03/17 08:13:49;;;;;;;;;;;;;;;25.28;23.06;99050.22;5059426;28;807;-38
2021/03/17 08:16:16;;;;;;;;;;;;;;;25.45;22.90;99055.13;5059329;28;805;-33
2021/03/17 08:18:42;;;;;;;;;;;;;;;25.49;22.90;99056.34;5059286;28;1011;-31
2021/03/17 08:21:08;;;;;;;;;;;;;;;25.51;22.98;99042.66;5077006;28;1913;-30
2021/03/17 08:23:39;;;;;;;;;;;;;;;25.47;23.12;99046.84;5077006;28;771;-34
2021/03/17 08:26:05;;;;;;;;;;;;;;;25.53;22.99;99043.28;5077927;28;752;-35
2021/03/17 08:28:30;;;;;;;;;;;;;;;25.53;22.84;99059.44;5077025;28;816;-33
2021/03/17 08:30:56;;;;;;;;;;;;;;;25.52;22.98;99053.25;5091178;28;1214;-37
2021/03/17 08:33:39;;;;;;;;;;;;;;;25.40;23.34;99047.69;5080451;28;919;-44
2021/03/17 08:36:09;;;;;;;;;;;;;;;25.49;23.20;99052.84;5076834;28;842;-40
2021/03/17 08:38:46;;;;;;;;;;;;;;;25.48;23.19;99053.88;5059269;28;844;-47
2021/03/17 08:41:11;;;;;;;;;;;;;;;25.54;22.96;99048.44;5076968;28;1989;-41
2021/03/17 08:43:37;;;;;;;;;;;;;;;25.57;23.12;99049.91;5076717;28;855;-41
2021/03/17 08:46:15;;;;;;;;;;;;;;;25.60;22.93;99049.47;5077046;28;768;-38
2021/03/17 08:49:10;;;;;;;;;;;;;;;25.70;22.90;99050.91;5077061;28;932;-34
2021/03/17 08:51:44;;;;;;;;;;;;;;;25.61;23.00;99056.50;5062945;28;1233;-33
2021/03/17 08:54:28;;;;;;;;;;;;;;;25.65;22.95;99051.56;5076783;28;768;-31
2021/03/17 08:56:53;;;;;;;;;;;;;;;25.57;23.09;99060.69;5076974;28;764;-33
2021/03/17 08:59:19;;;;;;;;;;;;;;;25.44;23.22;99056.97;5076515;28;862;-34
2021/03/17 09:01:45;;;;;;;;;;;;;;;25.53;23.16;99062.97;5076473;28;1977;-29
2021/03/17 09:04:10;;;;;;;;;;;;;;;25.58;23.13;99056.09;5058979;28;840;-32
2021/03/17 09:06:35;;;;;;;;;;;;;;;25.72;22.99;99056.91;5076217;28;879;-33
2021/03/17 09:09:01;;;;;;;;;;;;;;;25.54;23.30;99064.59;5076671;28;768;-27
2021/03/17 09:11:29;;;;;;;;;;;;;;;25.68;23.01;99051.13;5080360;28;1183;-30
2021/03/17 09:13:55;;;;;;;;;;;;;;;25.73;23.08;99061.25;5096664;28;760;-30
2021/03/17 09:16:20;;;;;;;;;;;;;;;25.72;22.84;99065.81;5075675;28;914;-28
2021/03/17 09:19:09;;;;;;;;;;;;;;;25.67;23.00;99060.25;5077304;28;978;-27
2021/03/17 09:21:35;;;;;;;;;;;;;;;25.65;23.11;99067.72;5067679;28;1914;-31
2021/03/17 09:24:00;;;;;;;;;;;;;;;25.62;23.22;99076.19;5096216;28;799;-49
2021/03/17 09:26:26;;;;;;;;;;;;;;;25.49;23.39;99063.63;5097024;28;826;-28
2021/03/17 09:28:51;;;;;;;;;;;;;;;25.48;23.36;99073.53;5096350;28;811;-47
2021/03/17 09:31:17;;;;;;;;;;;;;;;25.42;23.61;99069.81;5096546;28;1086;-30
2021/03/17 09:33:42;;;;;;;;;;;;;;;25.54;23.45;99072.69;5077398;28;955;-31
2021/03/17 09:36:08;;;;;;;;;;;;;;;25.57;23.29;99079.53;5078591;28;736;-31
2021/03/17 09:38:35;;;;;;;;;;;;;;;25.50;23.66;99071.47;5081036;28;787;-29
2021/03/17 09:41:15;;;;;;;;;;;;;;;25.36;23.77;99075.25;5093351;28;1918;-29
2021/03/17 09:43:47;;;;;;;;;;;;;;;25.45;23.66;99087.44;5099443;28;863;-29
2021/03/17 09:46:31;;;;;;;;;;;;;;;25.51;23.82;99072.28;5100897;28;910;-33
2021/03/17 09:49:07;;;;;;;;;;;;;;;25.47;23.81;99082.66;5079802;28;871;-29
2021/03/17 09:51:36;;;;;;;;;;;;;;;25.41;23.96;99083.50;5079949;28;874;-30
2021/03/17 09:54:03;;;;;;;;;;;;;;;25.43;24.08;99079.56;5080408;28;764;-43
2021/03/17 09:56:44;;;;;;;;;;;;;;;25.59;23.86;99090.88;5079893;28;787;-30
2021/03/17 09:59:20;;;;;;;;;;;;;;;25.40;23.77;99082.69;5079726;28;918;-29
2021/03/17 10:01:48;;;;;;;;;;;;;;;25.42;23.86;99087.84;5080101;28;1958;-28
2021/03/17 10:04:17;;;;;;;;;;;;;;;25.47;23.75;99092.59;5079727;28;739;-31
2021/03/17 10:06:42;;;;;;;;;;;;;;;25.56;23.78;99091.31;5079867;28;744;-49
2021/03/17 10:09:08;;;;;;;;;;;;;;;25.51;23.97;99091.13;5062361;28;1210;-34
2021/03/17 10:11:33;;;;;;;;;;;;;;;25.30;23.47;99095.75;5061404;28;817;-47
2021/03/17 10:13:58;;;;;;;;;;;;;;;25.24;23.66;99102.00;5079635;28;871;-37
2021/03/17 10:16:23;;;;;;;;;;;;;;;25.30;23.79;99098.44;5079993;28;954;-34
2021/03/17 10:18:52;;;;;;;;;;;;;;;25.19;24.06;99110.69;5079414;28;967;-36
2021/03/17 10:21:17;;;;;;;;;;;;;;;25.12;23.74;99096.41;5079662;28;1909;-33
2021/03/17 10:23:48;;;;;;;;;;;;;;;24.64;24.19;99104.47;5061967;28;823;-33
2021/03/17 10:26:15;;;;;;;;;;;;;;;24.86;24.41;99119.59;5079216;28;871;-34
2021/03/17 10:28:40;;;;;;;;;;;;;;;25.06;24.18;99114.22;5079727;28;764;-32
2021/03/17 10:31:05;;;;;;;;;;;;;;;25.06;24.18;99108.84;5061371;28;1128;-36
2021/03/17 10:33:31;;;;;;;;;;;;;;;25.08;24.02;99112.16;5078944;28;955;-33
2021/03/17 10:35:56;;;;;;;;;;;;;;;25.22;23.85;99110.28;5079642;28;755;-34
2021/03/17 10:38:25;;;;;;;;;;;;;;;25.25;23.78;99096.41;5079591;28;764;-35
2021/03/17 10:40:50;;;;;;;;;;;;;;;24.87;24.48;99114.00;5078799;28;1921;-32
2021/03/17 10:43:16;;;;;;;;;;;;;;;24.64;24.97;99111.75;5079716;28;787;-34
2021/03/17 10:45:41;;;;;;;;;;;;;;;24.52;25.05;99115.03;5078704;28;1071;-33
2021/03/17 10:48:13;;;;;;;;;;;;;;;24.58;25.13;99121.44;5079012;28;955;-32
2021/03/17 10:50:39;;;;;;;;;;;;;;;24.63;25.23;99127.03;5079289;28;811;-41
2021/03/17 10:53:16;;;;;;;;;;;;;;;24.63;25.32;99126.19;5079662;28;838;-31
2021/03/17 10:55:41;;;;;;;;;;;;;;;24.72;25.21;99124.97;5078557;28;839;-33
2021/03/17 10:58:11;;;;;;;;;;;;;;;24.76;25.18;99128.91;5070657;28;803;-45
2021/03/17 11:00:36;;;;;;;;;;;;;;;24.71;25.17;99128.69;5097798;28;1984;-33
2021/03/17 11:03:02;;;;;;;;;;;;;;;24.74;25.33;99122.88;5098347;28;942;-33
2021/03/17 11:05:30;;;;;;;;;;;;;;;24.61;25.36;99120.22;5099274;28;763;-30
2021/03/17 11:08:05;;;;;;;;;;;;;;;24.49;25.62;99112.75;5098865;28;812;-32
2021/03/17 11:10:37;;;;;;;;;;;;;;;24.54;25.65;99139.03;5099223;28;840;-33
2021/03/17 11:13:08;;;;;;;;;;;;;;;24.65;25.59;99124.13;5099083;28;841;-34
2021/03/17 11:15:33;;;;;;;;;;;;;;;24.67;25.58;99124.75;5098985;28;764;-33
2021/03/17 11:17:58;;;;;;;;;;;;;;;24.70;25.54;99117.13;5097971;28;946;-33
2021/03/17 11:20:24;;;;;;;;;;;;;;;24.71;25.55;99123.31;5098539;28;1913;-33
2021/03/17 11:22:49;;;;;;;;;;;;;;;24.72;25.55;99134.91;5098773;28;736;-33
2021/03/17 11:25:14;;;;;;;;;;;;;;;24.75;25.62;99135.31;5098575;28;734;-33
2021/03/17 11:27:40;;;;;;;;;;;;;;;24.76;25.53;99136.97;5098775;28;746;-34
2021/03/17 11:30:09;;;;;;;;;;;;;;;24.65;25.69;99140.28;5098149;28;1010;-33
2021/03/17 11:32:34;;;;;;;;;;;;;;;24.57;25.71;99139.41;5078304;28;939;-35
2021/03/17 11:34:59;;;;;;;;;;;;;;;24.59;25.68;99139.22;5098462;28;488;-34
2021/03/17 11:37:25;;;;;;;;;;;;;;;24.66;25.75;99136.53;5098436;28;763;-36
2021/03/17 11:39:50;;;;;;;;;;;;;;;24.68;25.69;99140.69;5098479;28;1909;-33
2021/03/17 11:42:15;;;;;;;;;;;;;;;24.77;25.65;99153.94;5098444;28;820;-35
2021/03/17 11:44:41;;;;;;;;;;;;;;;24.74;25.59;99152.47;5098614;28;752;-40
2021/03/17 11:47:06;;;;;;;;;;;;;;;24.74;25.59;99151.66;5097658;28;954;-35
2021/03/17 11:49:31;;;;;;;;;;;;;;;24.68;25.65;99150.59;5097987;28;730;-33
2021/03/17 11:51:57;;;;;;;;;;;;;;;24.77;25.66;99146.69;5098159;28;839;-35
2021/03/17 11:54:22;;;;;;;;;;;;;;;24.86;25.60;99152.69;5098365;28;795;-43
2021/03/17 11:56:47;;;;;;;;;;;;;;;24.87;25.60;99153.53;5097879;28;751;-34
2021/03/17 11:59:12;;;;;;;;;;;;;;;24.86;25.57;99143.81;5097305;28;894;-35
2021/03/17 12:01:38;;;;;;;;;;;;;;;24.94;25.57;99159.78;5097113;28;1987;-29
2021/03/17 12:04:04;;;;;;;;;;;;;;;24.97;25.57;99155.81;5097790;28;803;-31
2021/03/17 12:06:29;;;;;;;;;;;;;;;24.92;25.42;99151.06;5097972;28;815;-35
2021/03/17 12:08:55;;;;;;;;;;;;;;;24.89;25.52;99164.91;5098116;28;811;-32
2021/03/17 12:11:20;;;;;;;;;;;;;;;24.81;25.67;99168.59;5097456;28;822;-33
2021/03/17 12:13:46;;;;;;;;;;;;;;;24.71;25.84;99177.09;5097821;28;787;-33
2021/03/17 12:16:11;;;;;;;;;;;;;;;24.68;26.03;99166.75;5098000;28;748;-42
2021/03/17 12:18:36;;;;;;;;;;;;;;;24.63;25.91;99161.97;5078375;28;993;-34
2021/03/17 12:21:01;;;;;;;;;;;;;;;24.58;26.06;99172.53;5077354;28;1966;-33
2021/03/17 12:23:27;;;;;;;;;;;;;;;24.63;26.00;99166.53;5077618;28;748;-33
2021/03/17 12:25:52;;;;;;;;;;;;;;;24.70;26.00;99178.13;5077343;28;772;-41
2021/03/17 12:28:17;;;;;;;;;;;;;;;24.75;25.98;99172.13;5079737;28;879;-41
2021/03/17 12:30:43;;;;;;;;;;;;;;;24.85;25.72;99169.88;5096266;28;1159;-30
2021/03/17 12:33:08;;;;;;;;;;;;;;;24.64;26.01;99173.56;5096096;28;879;-40
2021/03/17 12:35:33;;;;;;;;;;;;;;;24.79;25.76;99171.50;5097489;28;743;-34
2021/03/17 12:37:59;;;;;;;;;;;;;;;24.75;25.93;99175.66;5097465;28;799;-33
2021/03/17 12:40:25;;;;;;;;;;;;;;;24.70;25.91;99184.34;5097199;28;1981;-43
2021/03/17 12:42:50;;;;;;;;;;;;;;;24.70;25.92;99180.81;5097373;28;788;-33
2021/03/17 12:45:16;;;;;;;;;;;;;;;24.72;25.93;99189.50;5097124;28;736;-35
2021/03/17 12:47:42;;;;;;;;;;;;;;;24.68;25.93;99193.63;5085532;28;1001;-29
2021/03/17 12:50:08;;;;;;;;;;;;;;;24.74;25.72;99195.50;5076599;28;844;-34
2021/03/17 12:52:33;;;;;;;;;;;;;;;24.54;26.14;99200.84;5077071;28;771;-37
2021/03/17 12:54:58;;;;;;;;;;;;;;;24.53;26.24;99207.25;5076320;28;539;-31
2021/03/17 12:57:24;;;;;;;;;;;;;;;24.70;25.85;99207.69;5076873;28;739;-32
2021/03/17 12:59:49;;;;;;;;;;;;;;;24.73;25.81;99203.75;5076498;28;1967;-32
2021/03/17 13:02:15;;;;;;;;;;;;;;;24.73;25.90;99215.34;5081718;28;1059;-35
2021/03/17 13:04:40;;;;;;;;;;;;;;;24.67;25.86;99216.19;5097361;28;809;-31